Latest Weather Observations for Rhyll

IDV60901

Issued at 11:05 pm EDT Tuesday 21 October 2014 (issued every 10 minutes, with the page automatically refreshed every 10 minutes)

About weather observations | Map of Melbourne area stations | Latest observations for Melbourne area | Other Formats
Station Details ID: 086373 Name: RHYLL Lat: -38.46 Lon: 145.31 Height: 13.4 m
Data from the previous 72 hours. | See also: Recent months at Rhyll
Date/Time
EDT
Tmp

°C
App
Tmp
°C
Dew
Point
°C
Rel
Hum
%
Delta-T

°C
Wind Press
QNH
hPa
Press
MSL
hPa
Rain
since
9 am
mm
Dir
 
Spd
km/h
Gust
km/h
Spd
kts
Gust
kts
21/11:00pm 14.3 13.7 12.3 88 1.1 ENE 7 9 4 5 1023.5 1023.5 0.0
21/10:30pm 15.0 14.1 12.7 86 1.3 NE 9 11 5 6 1023.6 1023.6 0.0
21/10:00pm 15.2 14.4 12.9 86 1.3 NE 9 11 5 6 1023.8 1023.8 0.0
21/09:30pm 15.3 14.9 13.0 86 1.3 ENE 7 11 4 6 1023.7 1023.7 0.0
21/09:00pm 16.2 14.7 13.1 82 1.7 E 13 15 7 8 1023.6 1023.6 0.0
21/08:30pm 16.6 14.8 13.3 81 1.8 E 15 19 8 10 1023.6 1023.6 0.0
21/08:00pm 17.1 14.6 13.4 79 2.1 E 19 24 10 13 1023.4 1023.4 0.0
21/07:30pm 17.6 15.1 13.5 77 2.3 E 19 22 10 12 1023.4 1023.4 0.0
21/07:00pm 18.4 15.8 13.9 75 2.6 E 20 24 11 13 1023.2 1023.2 0.0
21/06:30pm 18.9 16.1 14.2 74 2.7 ESE 22 24 12 13 1023.1 1023.1 0.0
21/06:00pm 19.5 16.3 14.3 72 3.0 ESE 24 28 13 15 1023.3 1023.3 0.0
21/05:30pm 19.9 16.4 14.5 71 3.1 ESE 26 30 14 16 1023.3 1023.3 0.0
21/05:00pm 20.5 16.7 14.6 69 3.4 ESE 28 33 15 18 1023.3 1023.3 0.0
21/04:30pm 21.2 18.7 15.1 68 3.6 ESE 22 26 12 14 1023.5 1023.5 0.0
21/04:00pm 22.5 23.2 15.6 65 4.1 SE 6 11 3 6 1023.8 1023.8 0.0
21/03:30pm 22.6 22.7 12.8 54 5.6 SE 4 6 2 3 1024.3 1024.3 0.0
21/03:00pm 22.2 22.1 12.2 53 5.6 SSE 4 6 2 3 1024.8 1024.8 0.0
21/02:30pm 21.9 21.9 12.5 55 5.3 SE 4 6 2 3 1025.2 1025.2 0.0
21/02:00pm 21.6 21.6 12.5 56 5.1 SE 4 6 2 3 1025.8 1025.8 0.0
21/01:30pm 20.9 20.6 11.3 54 5.3 E 4 4 2 2 1026.2 1026.2 0.0
21/01:00pm 20.3 19.9 11.0 55 5.1 ESE 4 6 2 3 1026.7 1026.7 0.0
21/12:30pm 19.9 20.0 11.4 58 4.7 ESE 2 6 1 3 1026.9 1026.9 0.0
21/12:00pm 19.3 19.0 11.3 60 4.4 E 4 6 2 3 1027.3 1027.3 0.0
21/11:30am 18.0 17.3 10.1 60 4.2 SSE 4 6 2 3 1027.5 1027.5 0.0
21/11:00am 18.6 18.2 11.2 62 4.0 ESE 4 6 2 3 1027.8 1027.8 0.0
21/10:30am 17.4 17.0 11.0 66 3.4 SSE 4 7 2 4 1028.1 1028.1 0.0
21/10:00am 18.6 17.7 11.2 62 4.0 ENE 7 9 4 5 1028.2 1028.2 0.0
21/09:30am 17.4 16.0 11.0 66 3.4 ENE 9 13 5 7 1028.2 1028.2 0.0
21/09:00am 16.4 14.9 10.5 68 3.1 ENE 9 11 5 6 1028.3 1028.3 0.0
21/08:30am 15.4 13.7 9.7 69 3.0 E 9 13 5 7 1028.1 1028.1 0.0
21/08:00am 14.2 11.8 10.0 76 2.2 E 13 15 7 8 1027.9 1027.9 0.0
21/07:30am 12.8 9.4 9.3 79 1.8 E 17 20 9 11 1027.6 1027.6 0.0
21/07:00am 11.6 7.8 9.0 84 1.3 E 19 20 10 11 1027.2 1027.2 0.0
21/06:30am 11.3 7.2 8.7 84 1.3 E 20 24 11 13 1026.9 1026.9 0.0
21/06:00am 11.2 7.3 8.6 84 1.3 E 19 24 10 13 1026.7 1026.7 0.0
21/05:30am 11.2 7.3 8.8 85 1.2 E 19 24 10 13 1026.8 1026.8 0.0
21/05:00am 11.5 7.0 8.7 83 1.4 ESE 22 28 12 15 1026.7 1026.7 0.0
21/04:30am 11.6 6.7 8.6 82 1.5 ESE 24 28 13 15 1026.7 1026.7 0.0
21/04:00am 11.7 6.4 8.6 81 1.5 ESE 26 32 14 17 1026.7 1026.7 0.0
21/03:30am 11.7 6.4 8.4 80 1.6 E 26 32 14 17 1027.1 1027.1 0.0
21/03:00am 11.7 5.6 8.2 79 1.7 ESE 30 35 16 19 1027.2 1027.2 0.0
21/02:30am 11.8 6.1 8.3 79 1.7 ESE 28 33 15 18 1027.6 1027.6 0.0
21/02:00am 11.9 5.7 7.8 76 2.0 E 30 41 16 22 1027.7 1027.7 0.0
21/01:30am 11.9 6.2 8.2 78 1.8 E 28 35 15 19 1028.4 1028.4 0.0
21/01:00am 11.8 6.1 8.3 79 1.7 E 28 33 15 18 1029.0 1029.0 0.0
21/12:30am 11.8 5.7 8.3 79 1.7 E 30 33 16 18 1028.9 1028.9 0.0
21/12:00am 12.1 6.1 8.6 79 1.7 ESE 30 37 16 20 1029.2 1029.2 0.0
 
Date/Time
EDT
Tmp

°C
App
Tmp
°C
Dew
Point
°C
Rel
Hum
%
Delta-T

°C
Wind Press
QNH
hPa
Press
MSL
hPa
Rain
since
9 am
mm
Dir
 
Spd
km/h
Gust
km/h
Spd
kts
Gust
kts
20/11:30pm 12.0 5.9 8.3 78 1.8 ESE 30 35 16 19 1029.5 1029.5 0.0
20/11:00pm 12.0 5.5 8.1 77 1.9 ESE 32 39 17 21 1029.5 1029.5 0.0
20/10:30pm 12.0 6.3 8.3 78 1.8 ESE 28 35 15 19 1029.7 1029.7 0.0
20/10:00pm 12.2 6.1 8.3 77 1.9 ESE 30 35 16 19 1029.9 1029.9 0.0
20/09:30pm 12.4 5.9 8.3 76 2.0 ESE 32 39 17 21 1029.9 1029.9 0.0
20/09:00pm 12.6 5.9 8.3 75 2.1 ESE 33 39 18 21 1029.6 1029.6 0.0
20/08:30pm 13.0 5.6 8.5 74 2.2 ESE 37 44 20 24 1029.2 1029.2 0.0
20/08:00pm 13.4 6.1 8.7 73 2.3 ESE 37 43 20 23 1028.9 1028.9 0.0
20/07:30pm 14.0 6.8 9.0 72 2.5 ESE 37 46 20 25 1028.6 1028.6 0.0
20/07:00pm 14.7 6.3 8.9 68 2.9 ESE 43 52 23 28 1028.3 1028.3 0.0
20/06:30pm 15.5 9.4 10.3 71 2.7 ESE 33 41 18 22 1028.3 1028.3 0.0
20/06:00pm 15.7 10.0 9.8 68 3.1 SE 30 44 16 24 1028.3 1028.3 0.0
20/05:39pm 16.0 10.4 10.3 69 3.0 SE 30 48 16 26 1028.2 1028.2 0.0
20/05:30pm 16.2 10.6 10.3 68 3.1 SE 30 46 16 25 1028.2 1028.2 0.0
20/05:00pm 16.5 11.1 10.8 69 3.0 SE 30 46 16 25 1028.2 1028.2 0.0
20/04:53pm 16.2 11.0 10.1 67 3.2 SE 28 46 15 25 1028.2 1028.2 0.0
20/04:30pm 16.5 11.3 10.4 67 3.2 SE 28 39 15 21 1028.3 1028.3 0.0
20/04:00pm 16.7 12.0 10.5 67 3.3 SE 26 46 14 25 1028.4 1028.4 0.0
20/03:30pm 16.9 11.8 10.5 66 3.4 SE 28 41 15 22 1028.6 1028.6 0.0
20/03:00pm 17.2 12.5 10.6 65 3.5 ESE 26 39 14 21 1028.9 1028.9 0.0
20/02:30pm 17.7 13.1 11.0 65 3.6 ESE 26 37 14 20 1029.1 1029.1 0.0
20/02:00pm 17.2 13.4 9.9 62 3.8 SE 20 32 11 17 1029.4 1029.4 0.0
20/01:30pm 17.4 13.7 9.3 59 4.2 SE 19 30 10 16 1029.7 1029.7 0.0
20/01:00pm 17.1 11.9 9.0 59 4.2 ESE 26 37 14 20 1029.9 1029.9 0.0
20/12:30pm 17.0 11.4 8.9 59 4.2 ESE 28 33 15 18 1030.3 1030.3 0.0
20/12:00pm 16.2 10.5 8.2 59 4.0 ESE 28 33 15 18 1030.6 1030.6 0.0
20/11:30am 16.3 10.0 7.5 56 4.4 E 30 39 16 21 1031.0 1031.0 0.0
20/11:00am 16.5 10.3 8.0 57 4.3 E 30 39 16 21 1031.1 1031.1 0.0
20/10:30am 15.2 8.6 6.2 55 4.3 ESE 30 39 16 21 1031.3 1031.3 0.0
20/10:00am 14.6 8.0 5.9 56 4.1 ESE 30 41 16 22 1031.6 1031.6 0.0
20/09:30am 13.8 7.9 5.7 58 3.8 ESE 26 41 14 22 1031.4 1031.4 0.0
20/09:00am 13.4 7.2 6.3 62 3.4 ESE 28 33 15 18 1031.4 1031.4 0.0
20/08:30am 13.0 7.2 6.1 63 3.3 ESE 26 33 14 18 1031.1 1031.1 0.0
20/08:00am 12.6 5.9 5.8 63 3.2 ESE 30 37 16 20 1030.8 1030.8 0.0
20/07:30am 12.0 5.6 5.4 64 3.1 ESE 28 39 15 21 1030.4 1030.4 0.0
20/07:00am 11.4 5.9 5.9 69 2.5 ESE 24 30 13 16 1030.8 1030.8 0.0
20/06:30am 11.2 7.1 4.2 62 3.1 SE 15 28 8 15 1030.6 1030.6 0.0
20/06:00am 10.9 6.7 3.7 61 3.2 SE 15 24 8 13 1030.2 1030.2 0.0
20/05:30am 11.4 7.5 5.3 66 2.8 SE 15 20 8 11 1030.1 1030.1 0.0
20/05:00am 11.2 7.1 4.2 62 3.1 SE 15 24 8 13 1029.8 1029.8 0.0
20/04:30am 11.6 7.2 4.8 63 3.1 SSE 17 26 9 14 1029.8 1029.8 0.0
20/04:00am 11.6 7.7 5.5 66 2.8 SE 15 30 8 16 1029.5 1029.5 0.0
20/03:30am 11.5 7.9 6.6 72 2.3 SSE 15 24 8 13 1029.4 1029.4 0.0
20/03:00am 11.7 7.7 6.8 72 2.3 SSE 17 26 9 14 1029.6 1029.6 0.0
20/02:30am 11.9 7.7 7.6 75 2.1 SSE 19 26 10 14 1029.6 1029.6 0.0
20/02:00am 11.9 7.7 7.6 75 2.1 SSE 19 26 10 14 1029.6 1029.6 0.0
20/01:30am 11.9 7.8 7.8 76 2.0 S 19 28 10 15 1029.3 1029.3 0.0
20/01:00am 12.3 8.8 8.8 79 1.7 S 17 26 9 14 1029.5 1029.5 0.0
20/12:30am 12.4 9.4 9.4 82 1.5 S 15 22 8 12 1029.3 1029.3 0.0
20/12:00am 12.7 10.0 8.8 77 1.9 S 13 20 7 11 1029.2 1029.2 0.0
 
Date/Time
EDT
Tmp

°C
App
Tmp
°C
Dew
Point
°C
Rel
Hum
%
Delta-T

°C
Wind Press
QNH
hPa
Press
MSL
hPa
Rain
since
9 am
mm
Dir
 
Spd
km/h
Gust
km/h
Spd
kts
Gust
kts
19/11:30pm 12.6 9.5 8.7 77 1.9 S 15 24 8 13 1029.1 1029.1 0.0
19/11:00pm 12.5 9.0 8.8 78 1.8 S 17 28 9 15 1028.9 1028.9 0.0
19/10:30pm 11.9 8.6 9.6 86 1.2 S 17 30 9 16 1028.5 1028.5 0.0
19/10:00pm 12.9 9.6 9.5 80 1.7 S 17 30 9 16 1028.6 1028.6 0.0
19/09:30pm 12.8 9.2 10.0 83 1.4 S 19 30 10 16 1027.8 1027.8 0.0
19/09:00pm 12.9 8.9 10.6 86 1.2 S 22 43 12 23 1027.3 1027.3 0.0
19/08:30pm 14.1 12.5 11.4 84 1.4 S 11 24 6 13 1025.9 1025.9 0.0
19/08:00pm 14.1 13.0 12.0 87 1.1 S 9 19 5 10 1024.8 1024.8 0.0
19/07:30pm 14.2 11.6 11.9 86 1.2 SW 17 26 9 14 1024.7 1024.7 0.0
19/07:00pm 14.5 12.3 12.2 86 1.2 SW 15 32 8 17 1023.9 1023.9 0.0
19/06:30pm 14.7 11.7 12.4 86 1.3 SW 20 32 11 17 1023.1 1023.1 0.0
19/06:00pm 14.9 12.1 12.6 86 1.3 SW 19 30 10 16 1022.6 1022.6 0.0
19/05:30pm 14.9 12.1 12.6 86 1.3 SW 19 33 10 18 1021.8 1021.8 0.0
19/05:00pm 14.9 11.9 12.6 86 1.3 SSW 20 32 11 17 1021.2 1021.2 0.0
19/04:30pm 15.6 13.3 13.1 85 1.4 SSW 17 32 9 17 1021.1 1021.1 0.0
19/04:00pm 15.3 12.6 13.0 86 1.3 SW 19 33 10 18 1020.0 1020.0 0.0
19/03:30pm 15.2 10.8 12.9 86 1.3 SSW 28 44 15 24 1019.8 1019.8 0.0
19/03:00pm 15.7 10.5 12.8 83 1.6 SW 32 46 17 25 1019.4 1019.4 0.0
19/02:35pm 20.6 17.5 12.1 58 4.8 SW 20 30 11 16 1018.8 1018.8 0.0
19/02:30pm 25.6 23.3 9.0 35 9.0 W 11 24 6 13 1018.7 1018.7 0.0
19/02:00pm 23.8 20.6 10.1 42 7.5 NNW 17 30 9 16 1018.4 1018.4 0.0
19/01:30pm 22.6 18.1 10.1 45 6.8 NNW 24 35 13 19 1018.3 1018.3 0.0
19/01:00pm 22.6 17.3 9.7 44 7.0 NNW 28 37 15 20 1018.3 1018.3 0.0
19/12:30pm 22.5 16.9 10.3 46 6.7 NNW 30 41 16 22 1018.4 1018.4 0.0
19/12:00pm 22.2 16.3 9.0 43 7.0 NNW 30 43 16 23 1018.7 1018.7 0.0
19/11:30am 21.8 17.5 10.6 49 6.1 NNW 24 30 13 16 1019.2 1019.2 0.0
19/11:00am 21.7 16.1 8.9 44 6.8 N 28 35 15 19 1019.5 1019.5 0.0
19/10:30am 20.6 15.0 10.1 51 5.7 N 30 35 16 19 1019.6 1019.6 0.0
19/10:00am 19.8 13.8 10.0 53 5.2 N 32 35 17 19 1019.8 1019.8 0.0
19/09:30am 19.3 12.9 9.5 53 5.2 N 33 41 18 22 1020.1 1020.1 0.0
19/09:00am 19.5 12.7 9.1 51 5.5 N 35 43 19 23 1020.1 1020.1 0.0
19/08:30am 19.4 13.3 9.6 53 5.2 NNW 32 41 17 22 1020.0 1020.0 0.0
19/08:00am 19.2 12.9 8.8 51 5.4 NNW 32 41 17 22 1019.8 1019.8 0.0
19/07:30am 18.6 13.1 9.1 54 5.0 NNW 28 37 15 20 1019.6 1019.6 0.0
19/07:00am 18.5 13.7 9.0 54 4.9 NNW 24 30 13 16 1019.1 1019.1 0.0
19/06:30am 18.5 12.5 8.7 53 5.1 N 30 35 16 19 1018.8 1018.8 0.0
19/06:00am 18.5 13.7 9.0 54 4.9 NNW 24 33 13 18 1018.7 1018.7 0.0
19/05:30am 18.4 13.7 9.2 55 4.8 NNW 24 33 13 18 1018.6 1018.6 0.0
19/05:00am 17.9 14.1 9.8 59 4.3 NNW 20 24 11 13 1018.8 1018.8 0.0
19/04:30am 18.1 13.5 9.7 58 4.4 NNW 24 30 13 16 1018.8 1018.8 0.0
19/04:00am 17.4 14.5 9.8 61 4.0 NNW 15 19 8 10 1019.0 1019.0 0.0
19/03:30am 16.7 14.6 9.9 64 3.6 N 11 17 6 9 1019.4 1019.4 0.0
19/03:00am 17.6 14.4 9.8 60 4.1 NNW 17 20 9 11 1019.5 1019.5 0.0
19/02:30am 15.6 15.7 10.2 70 2.8 CALM 0 4 0 2 1019.8 1019.8 0.0
19/02:00am 17.1 16.0 10.5 65 3.5 NNE 7 9 4 5 1019.9 1019.9 0.0
19/01:30am 17.4 16.8 10.3 63 3.8 N 4 7 2 4 1020.3 1020.3 0.0
19/01:00am 16.5 13.9 12.1 75 2.4 NE 17 20 9 11 1020.2 1020.2 0.0
19/12:30am 16.7 13.1 11.8 73 2.7 NE 22 26 12 14 1020.7 1020.7 0.0
19/12:00am 16.6 12.7 12.0 74 2.5 NE 24 26 13 14 1021.0 1021.0 0.0
 
Date/Time
EDT
Tmp

°C
App
Tmp
°C
Dew
Point
°C
Rel
Hum
%
Delta-T

°C
Wind Press
QNH
hPa
Press
MSL
hPa
Rain
since
9 am
mm
Dir
 
Spd
km/h
Gust
km/h
Spd
kts
Gust
kts
18/11:30pm 16.3 12.1 12.5 78 2.1 NE 26 30 14 16 1021.3 1021.3 0.0

Latest Capital City Observations: Canberra | Sydney | Melbourne | Brisbane | Adelaide | Perth | Hobart | Darwin

Other Formats:

Comma delimited format used in spreadsheet applications
http://www.bom.gov.au/fwo/IDV60901/IDV60901.94892.axf

JavaScript Object Notation format (JSON) in row-major order
http://www.bom.gov.au/fwo/IDV60901/IDV60901.94892.json